sensor_id;sensor_type;location;lat;lon;timestamp;temperature;humidity
5154;DHT22;2595;53.584;10.084;2022-12-18T00:01:28;-2.60;99.90
5154;DHT22;2595;53.584;10.084;2022-12-18T00:03:55;-2.60;99.90
5154;DHT22;2595;53.584;10.084;2022-12-18T00:06:21;-2.60;99.90
5154;DHT22;2595;53.584;10.084;2022-12-18T00:08:48;-2.60;99.90
5154;DHT22;2595;53.584;10.084;2022-12-18T00:11:15;-2.70;99.90
5154;DHT22;2595;53.584;10.084;2022-12-18T00:13:42;-2.60;99.90
5154;DHT22;2595;53.584;10.084;2022-12-18T00:16:14;-2.60;99.90
5154;DHT22;2595;53.584;10.084;2022-12-18T00:18:41;-2.60;99.90
5154;DHT22;2595;53.584;10.084;2022-12-18T00:21:08;-2.60;99.90
5154;DHT22;2595;53.584;10.084;2022-12-18T00:23:35;-2.60;99.90
5154;DHT22;2595;53.584;10.084;2022-12-18T00:26:02;-2.70;99.90
5154;DHT22;2595;53.584;10.084;2022-12-18T00:28:28;-2.70;99.90
5154;DHT22;2595;53.584;10.084;2022-12-18T00:31:01;-2.70;99.90
5154;DHT22;2595;53.584;10.084;2022-12-18T00:33:27;-2.70;99.90
5154;DHT22;2595;53.584;10.084;2022-12-18T00:35:53;-2.70;99.90
5154;DHT22;2595;53.584;10.084;2022-12-18T00:38:19;-2.70;99.90
5154;DHT22;2595;53.584;10.084;2022-12-18T00:40:44;-2.70;99.90
5154;DHT22;2595;53.584;10.084;2022-12-18T00:43:10;-2.80;99.90
5154;DHT22;2595;53.584;10.084;2022-12-18T00:45:35;-2.80;99.90
5154;DHT22;2595;53.584;10.084;2022-12-18T00:48:01;-2.80;99.90
5154;DHT22;2595;53.584;10.084;2022-12-18T00:50:27;-2.70;99.90
5154;DHT22;2595;53.584;10.084;2022-12-18T00:52:52;-2.80;99.90
5154;DHT22;2595;53.584;10.084;2022-12-18T00:55:18;-2.80;99.90
5154;DHT22;2595;53.584;10.084;2022-12-18T00:57:44;-2.80;99.90
5154;DHT22;2595;53.584;10.084;2022-12-18T01:00:13;-2.90;99.90
5154;DHT22;2595;53.584;10.084;2022-12-18T01:02:39;-2.90;99.90
5154;DHT22;2595;53.584;10.084;2022-12-18T01:05:05;-2.90;99.90
5154;DHT22;2595;53.584;10.084;2022-12-18T01:07:30;-2.90;99.90
5154;DHT22;2595;53.584;10.084;2022-12-18T01:09:56;-2.90;99.90
5154;DHT22;2595;53.584;10.084;2022-12-18T01:12:22;-3.00;99.90
5154;DHT22;2595;53.584;10.084;2022-12-18T01:14:47;-2.90;99.90
5154;DHT22;2595;53.584;10.084;2022-12-18T01:17:13;-3.00;99.90
5154;DHT22;2595;53.584;10.084;2022-12-18T01:19:39;-3.00;99.90
5154;DHT22;2595;53.584;10.084;2022-12-18T01:22:05;-3.00;99.90
5154;DHT22;2595;53.584;10.084;2022-12-18T01:24:30;-3.10;99.90
5154;DHT22;2595;53.584;10.084;2022-12-18T01:26:56;-3.10;99.90
5154;DHT22;2595;53.584;10.084;2022-12-18T01:29:22;-3.10;99.90
5154;DHT22;2595;53.584;10.084;2022-12-18T01:31:48;-3.20;99.90
5154;DHT22;2595;53.584;10.084;2022-12-18T01:34:14;-3.20;99.90
5154;DHT22;2595;53.584;10.084;2022-12-18T01:36:40;-3.30;99.90
5154;DHT22;2595;53.584;10.084;2022-12-18T01:39:09;-3.30;99.90
5154;DHT22;2595;53.584;10.084;2022-12-18T01:41:36;-3.30;99.90
5154;DHT22;2595;53.584;10.084;2022-12-18T01:47:38;-3.40;99.90
5154;DHT22;2595;53.584;10.084;2022-12-18T01:52:33;-3.40;99.90
5154;DHT22;2595;53.584;10.084;2022-12-18T01:55:00;-3.40;99.90
5154;DHT22;2595;53.584;10.084;2022-12-18T01:57:28;-3.40;99.90
5154;DHT22;2595;53.584;10.084;2022-12-18T01:59:57;-3.40;99.90
5154;DHT22;2595;53.584;10.084;2022-12-18T02:02:24;-3.40;99.90
5154;DHT22;2595;53.584;10.084;2022-12-18T02:04:51;-3.40;99.90
5154;DHT22;2595;53.584;10.084;2022-12-18T02:07:36;-3.40;99.90
5154;DHT22;2595;53.584;10.084;2022-12-18T02:10:27;-3.50;99.90
5154;DHT22;2595;53.584;10.084;2022-12-18T02:13:07;-3.40;99.90
5154;DHT22;2595;53.584;10.084;2022-12-18T02:15:48;-3.40;99.90
5154;DHT22;2595;53.584;10.084;2022-12-18T02:18:24;-3.40;99.90
5154;DHT22;2595;53.584;10.084;2022-12-18T02:21:04;-3.40;99.90
5154;DHT22;2595;53.584;10.084;2022-12-18T02:23:50;-3.50;99.90
5154;DHT22;2595;53.584;10.084;2022-12-18T02:28:55;-3.50;99.90
5154;DHT22;2595;53.584;10.084;2022-12-18T02:31:24;-3.50;99.90
5154;DHT22;2595;53.584;10.084;2022-12-18T02:33:57;-3.50;99.90
5154;DHT22;2595;53.584;10.084;2022-12-18T02:36:26;-3.50;99.90
5154;DHT22;2595;53.584;10.084;2022-12-18T02:38:54;-3.50;99.90
5154;DHT22;2595;53.584;10.084;2022-12-18T02:41:24;-3.50;99.90
5154;DHT22;2595;53.584;10.084;2022-12-18T02:43:58;-3.50;99.90
5154;DHT22;2595;53.584;10.084;2022-12-18T02:51:57;-3.50;99.90
5154;DHT22;2595;53.584;10.084;2022-12-18T02:57:32;-3.50;99.90
5154;DHT22;2595;53.584;10.084;2022-12-18T03:00:10;-3.50;99.90
5154;DHT22;2595;53.584;10.084;2022-12-18T03:05:35;-3.50;99.90
5154;DHT22;2595;53.584;10.084;2022-12-18T03:08:10;-3.50;99.90
5154;DHT22;2595;53.584;10.084;2022-12-18T03:10:46;-3.50;99.90
5154;DHT22;2595;53.584;10.084;2022-12-18T03:13:19;-3.50;99.90
5154;DHT22;2595;53.584;10.084;2022-12-18T03:15:49;-3.50;99.90
5154;DHT22;2595;53.584;10.084;2022-12-18T03:18:23;-3.60;99.90
5154;DHT22;2595;53.584;10.084;2022-12-18T03:20:49;-3.60;99.90
5154;DHT22;2595;53.584;10.084;2022-12-18T03:23:20;-3.50;99.90
5154;DHT22;2595;53.584;10.084;2022-12-18T03:25:47;-3.50;99.90
5154;DHT22;2595;53.584;10.084;2022-12-18T03:28:18;-3.50;99.90
5154;DHT22;2595;53.584;10.084;2022-12-18T03:30:47;-3.50;99.90
5154;DHT22;2595;53.584;10.084;2022-12-18T03:33:25;-3.50;99.90
5154;DHT22;2595;53.584;10.084;2022-12-18T03:35:52;-3.50;99.90
5154;DHT22;2595;53.584;10.084;2022-12-18T03:38:18;-3.50;99.90
5154;DHT22;2595;53.584;10.084;2022-12-18T03:44:20;-3.60;99.90
5154;DHT22;2595;53.584;10.084;2022-12-18T03:52:53;-3.60;99.90
5154;DHT22;2595;53.584;10.084;2022-12-18T03:55:23;-3.60;99.90
5154;DHT22;2595;53.584;10.084;2022-12-18T03:57:51;-3.60;99.90
5154;DHT22;2595;53.584;10.084;2022-12-18T04:00:18;-3.60;99.90
5154;DHT22;2595;53.584;10.084;2022-12-18T04:02:51;-3.60;99.90
5154;DHT22;2595;53.584;10.084;2022-12-18T04:05:18;-3.60;99.90
5154;DHT22;2595;53.584;10.084;2022-12-18T04:07:47;-3.60;99.90
5154;DHT22;2595;53.584;10.084;2022-12-18T04:10:14;-3.60;99.90
5154;DHT22;2595;53.584;10.084;2022-12-18T04:12:41;-3.60;99.90
5154;DHT22;2595;53.584;10.084;2022-12-18T04:15:07;-3.60;99.90
5154;DHT22;2595;53.584;10.084;2022-12-18T04:17:33;-3.60;99.90
5154;DHT22;2595;53.584;10.084;2022-12-18T04:19:59;-3.70;99.90
5154;DHT22;2595;53.584;10.084;2022-12-18T04:22:24;-3.70;99.90
5154;DHT22;2595;53.584;10.084;2022-12-18T04:24:50;-3.60;99.90
5154;DHT22;2595;53.584;10.084;2022-12-18T04:27:15;-3.70;99.90
5154;DHT22;2595;53.584;10.084;2022-12-18T04:29:41;-3.70;99.90
5154;DHT22;2595;53.584;10.084;2022-12-18T04:32:08;-3.70;99.90
5154;DHT22;2595;53.584;10.084;2022-12-18T04:34:33;-3.70;99.90
5154;DHT22;2595;53.584;10.084;2022-12-18T04:36:59;-3.80;99.90
5154;DHT22;2595;53.584;10.084;2022-12-18T04:39:24;-3.80;99.90
5154;DHT22;2595;53.584;10.084;2022-12-18T04:41:50;-3.80;99.90
5154;DHT22;2595;53.584;10.084;2022-12-18T04:44:15;-3.80;99.90
5154;DHT22;2595;53.584;10.084;2022-12-18T04:46:41;-3.90;99.90
5154;DHT22;2595;53.584;10.084;2022-12-18T04:49:07;-3.90;99.90
5154;DHT22;2595;53.584;10.084;2022-12-18T04:51:32;-3.90;99.90
5154;DHT22;2595;53.584;10.084;2022-12-18T04:53:58;-3.90;99.90
5154;DHT22;2595;53.584;10.084;2022-12-18T04:56:24;-3.90;99.90
5154;DHT22;2595;53.584;10.084;2022-12-18T04:58:49;-3.90;99.90
5154;DHT22;2595;53.584;10.084;2022-12-18T05:01:16;-3.90;99.90
5154;DHT22;2595;53.584;10.084;2022-12-18T05:03:42;-3.90;99.90
5154;DHT22;2595;53.584;10.084;2022-12-18T05:06:08;-3.90;99.90
5154;DHT22;2595;53.584;10.084;2022-12-18T05:08:34;-3.90;99.90
5154;DHT22;2595;53.584;10.084;2022-12-18T05:11:01;-3.90;99.90
5154;DHT22;2595;53.584;10.084;2022-12-18T05:13:27;-3.90;99.90
5154;DHT22;2595;53.584;10.084;2022-12-18T05:15:54;-3.90;99.90
5154;DHT22;2595;53.584;10.084;2022-12-18T05:18:20;-3.90;99.90
5154;DHT22;2595;53.584;10.084;2022-12-18T05:20:46;-3.90;99.90
5154;DHT22;2595;53.584;10.084;2022-12-18T05:23:12;-3.90;99.90
5154;DHT22;2595;53.584;10.084;2022-12-18T05:25:37;-4.00;99.90
5154;DHT22;2595;53.584;10.084;2022-12-18T05:28:03;-4.00;99.90
5154;DHT22;2595;53.584;10.084;2022-12-18T05:30:28;-4.00;99.90
5154;DHT22;2595;53.584;10.084;2022-12-18T05:32:54;-4.00;99.90
5154;DHT22;2595;53.584;10.084;2022-12-18T05:35:20;-4.00;99.90
5154;DHT22;2595;53.584;10.084;2022-12-18T05:37:45;-4.00;99.90
5154;DHT22;2595;53.584;10.084;2022-12-18T05:40:11;-4.10;99.90
5154;DHT22;2595;53.584;10.084;2022-12-18T05:42:37;-4.10;99.90
5154;DHT22;2595;53.584;10.084;2022-12-18T05:45:03;-4.10;99.90
5154;DHT22;2595;53.584;10.084;2022-12-18T05:47:29;-4.10;99.90
5154;DHT22;2595;53.584;10.084;2022-12-18T05:49:54;-4.10;99.90
5154;DHT22;2595;53.584;10.084;2022-12-18T05:52:20;-4.10;99.90
5154;DHT22;2595;53.584;10.084;2022-12-18T05:54:46;-4.10;99.90
5154;DHT22;2595;53.584;10.084;2022-12-18T05:57:11;-4.10;99.90
5154;DHT22;2595;53.584;10.084;2022-12-18T05:59:37;-4.10;99.90
5154;DHT22;2595;53.584;10.084;2022-12-18T06:02:03;-4.10;99.90
5154;DHT22;2595;53.584;10.084;2022-12-18T06:04:31;-4.10;99.90
5154;DHT22;2595;53.584;10.084;2022-12-18T06:06:57;-4.10;99.90
5154;DHT22;2595;53.584;10.084;2022-12-18T06:09:23;-4.10;99.90
5154;DHT22;2595;53.584;10.084;2022-12-18T06:11:48;-4.00;99.90
5154;DHT22;2595;53.584;10.084;2022-12-18T06:14:16;-4.10;99.90
5154;DHT22;2595;53.584;10.084;2022-12-18T06:16:42;-4.10;99.90
5154;DHT22;2595;53.584;10.084;2022-12-18T06:19:12;-4.10;99.90
5154;DHT22;2595;53.584;10.084;2022-12-18T06:21:38;-4.10;99.90
5154;DHT22;2595;53.584;10.084;2022-12-18T06:24:04;-4.10;99.90
5154;DHT22;2595;53.584;10.084;2022-12-18T06:26:30;-4.10;99.90
5154;DHT22;2595;53.584;10.084;2022-12-18T06:28:55;-4.10;99.90
5154;DHT22;2595;53.584;10.084;2022-12-18T06:31:21;-4.10;99.90
5154;DHT22;2595;53.584;10.084;2022-12-18T06:33:47;-4.10;99.90
5154;DHT22;2595;53.584;10.084;2022-12-18T06:36:13;-4.10;99.90
5154;DHT22;2595;53.584;10.084;2022-12-18T06:38:41;-4.20;99.90
5154;DHT22;2595;53.584;10.084;2022-12-18T06:41:11;-4.20;99.90
5154;DHT22;2595;53.584;10.084;2022-12-18T06:43:37;-4.20;99.90
5154;DHT22;2595;53.584;10.084;2022-12-18T06:46:04;-4.20;99.90
5154;DHT22;2595;53.584;10.084;2022-12-18T06:48:30;-4.20;99.90
5154;DHT22;2595;53.584;10.084;2022-12-18T06:50:56;-4.20;99.90
5154;DHT22;2595;53.584;10.084;2022-12-18T06:53:22;-4.20;99.90
5154;DHT22;2595;53.584;10.084;2022-12-18T06:55:48;-4.20;99.90
5154;DHT22;2595;53.584;10.084;2022-12-18T06:58:13;-4.30;99.90
5154;DHT22;2595;53.584;10.084;2022-12-18T07:00:39;-4.30;99.90
5154;DHT22;2595;53.584;10.084;2022-12-18T07:03:05;-4.30;99.90
5154;DHT22;2595;53.584;10.084;2022-12-18T07:05:30;-4.40;99.90
5154;DHT22;2595;53.584;10.084;2022-12-18T07:07:56;-4.40;99.90
5154;DHT22;2595;53.584;10.084;2022-12-18T07:10:22;-4.30;99.90
5154;DHT22;2595;53.584;10.084;2022-12-18T07:12:48;-4.40;99.90
5154;DHT22;2595;53.584;10.084;2022-12-18T07:15:13;-4.40;99.90
5154;DHT22;2595;53.584;10.084;2022-12-18T07:17:39;-4.40;99.90
5154;DHT22;2595;53.584;10.084;2022-12-18T07:20:05;-4.40;99.90
5154;DHT22;2595;53.584;10.084;2022-12-18T07:22:30;-4.40;99.90
5154;DHT22;2595;53.584;10.084;2022-12-18T07:24:56;-4.40;99.90
5154;DHT22;2595;53.584;10.084;2022-12-18T07:27:22;-4.40;99.90
5154;DHT22;2595;53.584;10.084;2022-12-18T07:29:48;-4.40;99.90
5154;DHT22;2595;53.584;10.084;2022-12-18T07:32:14;-4.40;99.90
5154;DHT22;2595;53.584;10.084;2022-12-18T07:34:40;-4.50;99.90
5154;DHT22;2595;53.584;10.084;2022-12-18T07:37:06;-4.50;99.90
5154;DHT22;2595;53.584;10.084;2022-12-18T07:39:31;-4.40;99.90
5154;DHT22;2595;53.584;10.084;2022-12-18T07:41:57;-4.40;99.90
5154;DHT22;2595;53.584;10.084;2022-12-18T07:44:41;-4.40;99.90
5154;DHT22;2595;53.584;10.084;2022-12-18T07:47:07;-4.40;99.90
5154;DHT22;2595;53.584;10.084;2022-12-18T07:49:32;-4.40;99.90
5154;DHT22;2595;53.584;10.084;2022-12-18T07:51:58;-4.40;99.90
5154;DHT22;2595;53.584;10.084;2022-12-18T07:54:24;-4.40;99.90
5154;DHT22;2595;53.584;10.084;2022-12-18T07:56:51;-4.40;99.90
5154;DHT22;2595;53.584;10.084;2022-12-18T07:59:17;-4.40;99.90
5154;DHT22;2595;53.584;10.084;2022-12-18T08:01:43;-4.40;99.90
5154;DHT22;2595;53.584;10.084;2022-12-18T08:04:09;-4.40;99.90
5154;DHT22;2595;53.584;10.084;2022-12-18T08:06:34;-4.50;99.90
5154;DHT22;2595;53.584;10.084;2022-12-18T08:09:00;-4.50;99.90
5154;DHT22;2595;53.584;10.084;2022-12-18T08:11:27;-4.50;99.90
5154;DHT22;2595;53.584;10.084;2022-12-18T08:13:52;-4.50;99.90
5154;DHT22;2595;53.584;10.084;2022-12-18T08:16:19;-4.50;99.90
5154;DHT22;2595;53.584;10.084;2022-12-18T08:18:45;-4.50;99.90
5154;DHT22;2595;53.584;10.084;2022-12-18T08:21:18;-4.50;99.90
5154;DHT22;2595;53.584;10.084;2022-12-18T08:23:46;-4.50;99.90
5154;DHT22;2595;53.584;10.084;2022-12-18T08:26:12;-4.50;99.90
5154;DHT22;2595;53.584;10.084;2022-12-18T08:28:38;-4.40;99.90
5154;DHT22;2595;53.584;10.084;2022-12-18T08:31:04;-4.50;99.90
5154;DHT22;2595;53.584;10.084;2022-12-18T08:33:30;-4.50;99.90
5154;DHT22;2595;53.584;10.084;2022-12-18T08:35:56;-4.40;99.90
5154;DHT22;2595;53.584;10.084;2022-12-18T08:38:21;-4.40;99.90
5154;DHT22;2595;53.584;10.084;2022-12-18T08:40:48;-4.40;99.90
5154;DHT22;2595;53.584;10.084;2022-12-18T08:43:13;-4.40;99.90
5154;DHT22;2595;53.584;10.084;2022-12-18T08:45:57;-4.40;99.90
5154;DHT22;2595;53.584;10.084;2022-12-18T08:48:23;-4.30;99.90
5154;DHT22;2595;53.584;10.084;2022-12-18T08:50:56;-4.30;99.90
5154;DHT22;2595;53.584;10.084;2022-12-18T08:53:26;-4.30;99.90
5154;DHT22;2595;53.584;10.084;2022-12-18T08:55:52;-4.30;99.90
5154;DHT22;2595;53.584;10.084;2022-12-18T08:58:18;-4.30;99.90
5154;DHT22;2595;53.584;10.084;2022-12-18T09:00:43;-4.30;99.90
5154;DHT22;2595;53.584;10.084;2022-12-18T09:03:17;-4.30;99.90
5154;DHT22;2595;53.584;10.084;2022-12-18T09:05:43;-4.20;99.90
5154;DHT22;2595;53.584;10.084;2022-12-18T09:08:09;-4.20;99.90
5154;DHT22;2595;53.584;10.084;2022-12-18T09:10:44;-4.10;99.90
5154;DHT22;2595;53.584;10.084;2022-12-18T09:13:11;-4.10;99.90
5154;DHT22;2595;53.584;10.084;2022-12-18T09:15:53;-4.10;99.90
5154;DHT22;2595;53.584;10.084;2022-12-18T09:18:20;-4.00;99.90
5154;DHT22;2595;53.584;10.084;2022-12-18T09:20:46;-4.00;99.90
5154;DHT22;2595;53.584;10.084;2022-12-18T09:23:12;-3.90;99.90
5154;DHT22;2595;53.584;10.084;2022-12-18T09:25:38;-3.90;99.90
5154;DHT22;2595;53.584;10.084;2022-12-18T09:28:13;-3.80;99.90
5154;DHT22;2595;53.584;10.084;2022-12-18T09:30:41;-3.80;99.90
5154;DHT22;2595;53.584;10.084;2022-12-18T09:33:06;-3.70;99.90
5154;DHT22;2595;53.584;10.084;2022-12-18T09:35:32;-3.70;99.90
5154;DHT22;2595;53.584;10.084;2022-12-18T09:38:01;-3.70;99.90
5154;DHT22;2595;53.584;10.084;2022-12-18T09:40:30;-3.70;99.90
5154;DHT22;2595;53.584;10.084;2022-12-18T09:43:02;-3.70;99.90
5154;DHT22;2595;53.584;10.084;2022-12-18T09:45:35;-3.60;99.90
5154;DHT22;2595;53.584;10.084;2022-12-18T09:48:05;-3.50;99.90
5154;DHT22;2595;53.584;10.084;2022-12-18T09:50:35;-3.50;99.90
5154;DHT22;2595;53.584;10.084;2022-12-18T09:53:06;-3.40;99.90
5154;DHT22;2595;53.584;10.084;2022-12-18T09:55:38;-3.30;99.90
5154;DHT22;2595;53.584;10.084;2022-12-18T10:00:36;-2.60;99.90
5154;DHT22;2595;53.584;10.084;2022-12-18T10:03:10;-2.20;99.90
5154;DHT22;2595;53.584;10.084;2022-12-18T10:10:50;-2.10;99.90
5154;DHT22;2595;53.584;10.084;2022-12-18T10:13:31;-2.10;99.90
5154;DHT22;2595;53.584;10.084;2022-12-18T10:21:37;-2.20;99.90
5154;DHT22;2595;53.584;10.084;2022-12-18T10:27:04;-2.20;99.90
5154;DHT22;2595;53.584;10.084;2022-12-18T10:29:34;-2.10;99.90
5154;DHT22;2595;53.584;10.084;2022-12-18T10:31:59;-2.10;99.90
5154;DHT22;2595;53.584;10.084;2022-12-18T10:34:25;-2.10;99.90
5154;DHT22;2595;53.584;10.084;2022-12-18T10:36:50;-2.00;99.90
5154;DHT22;2595;53.584;10.084;2022-12-18T10:41:42;-1.90;99.90
5154;DHT22;2595;53.584;10.084;2022-12-18T10:44:23;-1.80;99.90
5154;DHT22;2595;53.584;10.084;2022-12-18T10:46:50;-1.70;99.90
5154;DHT22;2595;53.584;10.084;2022-12-18T10:49:30;-1.70;99.90
5154;DHT22;2595;53.584;10.084;2022-12-18T10:52:23;-1.70;99.90
5154;DHT22;2595;53.584;10.084;2022-12-18T10:54:53;-1.50;99.90
5154;DHT22;2595;53.584;10.084;2022-12-18T10:59:54;-1.40;99.90
5154;DHT22;2595;53.584;10.084;2022-12-18T11:02:37;-1.30;99.90
5154;DHT22;2595;53.584;10.084;2022-12-18T11:07:49;-1.20;99.90
5154;DHT22;2595;53.584;10.084;2022-12-18T11:10:17;-1.10;99.90
5154;DHT22;2595;53.584;10.084;2022-12-18T11:12:43;-1.10;99.90
5154;DHT22;2595;53.584;10.084;2022-12-18T11:15:35;-1.00;99.90
5154;DHT22;2595;53.584;10.084;2022-12-18T11:18:00;-0.90;99.90
5154;DHT22;2595;53.584;10.084;2022-12-18T11:20:34;-0.80;99.90
5154;DHT22;2595;53.584;10.084;2022-12-18T11:23:03;-0.70;99.90
5154;DHT22;2595;53.584;10.084;2022-12-18T11:25:30;-0.60;99.90
5154;DHT22;2595;53.584;10.084;2022-12-18T11:30:29;-0.70;99.90
5154;DHT22;2595;53.584;10.084;2022-12-18T11:33:20;-0.80;99.90
5154;DHT22;2595;53.584;10.084;2022-12-18T11:35:58;-0.90;99.90
5154;DHT22;2595;53.584;10.084;2022-12-18T11:38:39;-1.00;99.90
5154;DHT22;2595;53.584;10.084;2022-12-18T11:41:27;-1.20;99.90
5154;DHT22;2595;53.584;10.084;2022-12-18T11:44:22;-1.20;99.90
5154;DHT22;2595;53.584;10.084;2022-12-18T11:46:53;-1.30;99.90
5154;DHT22;2595;53.584;10.084;2022-12-18T11:49:24;-1.40;99.90
5154;DHT22;2595;53.584;10.084;2022-12-18T11:52:00;-1.30;99.90
5154;DHT22;2595;53.584;10.084;2022-12-18T11:54:27;-1.20;99.90
5154;DHT22;2595;53.584;10.084;2022-12-18T12:13:14;-1.10;99.90
5154;DHT22;2595;53.584;10.084;2022-12-18T12:15:48;-1.10;99.90
5154;DHT22;2595;53.584;10.084;2022-12-18T12:23:36;-1.10;99.90
5154;DHT22;2595;53.584;10.084;2022-12-18T12:39:28;-1.10;99.90
5154;DHT22;2595;53.584;10.084;2022-12-18T12:41:56;-1.00;99.90
5154;DHT22;2595;53.584;10.084;2022-12-18T12:44:44;-1.00;99.90
5154;DHT22;2595;53.584;10.084;2022-12-18T12:47:24;-1.00;99.90
5154;DHT22;2595;53.584;10.084;2022-12-18T12:49:51;-1.10;99.90
5154;DHT22;2595;53.584;10.084;2022-12-18T12:52:55;-1.10;99.90
5154;DHT22;2595;53.584;10.084;2022-12-18T12:55:24;-1.10;99.90
5154;DHT22;2595;53.584;10.084;2022-12-18T12:57:57;-1.10;99.90
5154;DHT22;2595;53.584;10.084;2022-12-18T13:00:25;-1.10;99.90
5154;DHT22;2595;53.584;10.084;2022-12-18T13:06:00;-1.10;99.90
5154;DHT22;2595;53.584;10.084;2022-12-18T13:08:30;-1.10;99.90
5154;DHT22;2595;53.584;10.084;2022-12-18T13:10:58;-1.10;99.90
5154;DHT22;2595;53.584;10.084;2022-12-18T13:13:53;-1.10;99.90
5154;DHT22;2595;53.584;10.084;2022-12-18T13:16:24;-1.20;99.90
5154;DHT22;2595;53.584;10.084;2022-12-18T13:18:51;-1.10;99.90
5154;DHT22;2595;53.584;10.084;2022-12-18T13:21:24;-1.20;99.90
5154;DHT22;2595;53.584;10.084;2022-12-18T13:23:52;-1.20;99.90
5154;DHT22;2595;53.584;10.084;2022-12-18T13:31:57;-1.20;99.90
5154;DHT22;2595;53.584;10.084;2022-12-18T13:34:25;-1.20;99.90
5154;DHT22;2595;53.584;10.084;2022-12-18T13:36:52;-1.30;99.90
5154;DHT22;2595;53.584;10.084;2022-12-18T13:41:45;-1.30;99.90
5154;DHT22;2595;53.584;10.084;2022-12-18T13:46:49;-1.40;99.90
5154;DHT22;2595;53.584;10.084;2022-12-18T13:51:54;-1.40;99.90
5154;DHT22;2595;53.584;10.084;2022-12-18T13:54:36;-1.40;99.90
5154;DHT22;2595;53.584;10.084;2022-12-18T13:57:03;-1.50;99.90
5154;DHT22;2595;53.584;10.084;2022-12-18T13:59:37;-1.50;99.90
5154;DHT22;2595;53.584;10.084;2022-12-18T14:02:18;-1.50;99.90
5154;DHT22;2595;53.584;10.084;2022-12-18T14:04:47;-1.50;99.90
5154;DHT22;2595;53.584;10.084;2022-12-18T14:07:16;-1.50;99.90
5154;DHT22;2595;53.584;10.084;2022-12-18T14:09:51;-1.60;99.90
5154;DHT22;2595;53.584;10.084;2022-12-18T14:12:23;-1.60;99.90
5154;DHT22;2595;53.584;10.084;2022-12-18T14:18:01;-1.60;99.90
5154;DHT22;2595;53.584;10.084;2022-12-18T14:20:28;-1.70;99.90
5154;DHT22;2595;53.584;10.084;2022-12-18T14:22:56;-1.70;99.90
5154;DHT22;2595;53.584;10.084;2022-12-18T14:25:24;-1.70;99.90
5154;DHT22;2595;53.584;10.084;2022-12-18T14:30:44;-1.80;99.90
5154;DHT22;2595;53.584;10.084;2022-12-18T14:33:16;-1.80;99.90
5154;DHT22;2595;53.584;10.084;2022-12-18T14:35:58;-1.90;99.90
5154;DHT22;2595;53.584;10.084;2022-12-18T14:38:36;-1.80;99.90
5154;DHT22;2595;53.584;10.084;2022-12-18T14:41:09;-1.90;99.90
5154;DHT22;2595;53.584;10.084;2022-12-18T14:43:38;-1.90;99.90
5154;DHT22;2595;53.584;10.084;2022-12-18T14:48:56;-1.90;99.90
5154;DHT22;2595;53.584;10.084;2022-12-18T14:51:27;-1.90;99.90
5154;DHT22;2595;53.584;10.084;2022-12-18T14:53:54;-1.90;99.90
5154;DHT22;2595;53.584;10.084;2022-12-18T14:56:29;-1.90;99.90
5154;DHT22;2595;53.584;10.084;2022-12-18T14:59:00;-1.90;99.90
5154;DHT22;2595;53.584;10.084;2022-12-18T15:01:38;-1.90;99.90
5154;DHT22;2595;53.584;10.084;2022-12-18T15:04:26;-1.90;99.90
5154;DHT22;2595;53.584;10.084;2022-12-18T15:07:04;-2.00;99.90
5154;DHT22;2595;53.584;10.084;2022-12-18T15:09:30;-2.00;99.90
5154;DHT22;2595;53.584;10.084;2022-12-18T15:12:00;-2.00;99.90
5154;DHT22;2595;53.584;10.084;2022-12-18T15:14:55;-2.00;99.90
5154;DHT22;2595;53.584;10.084;2022-12-18T15:17:22;-1.90;99.90
5154;DHT22;2595;53.584;10.084;2022-12-18T15:19:51;-1.90;99.90
5154;DHT22;2595;53.584;10.084;2022-12-18T15:22:29;-1.90;99.90
5154;DHT22;2595;53.584;10.084;2022-12-18T15:24:56;-1.80;99.90
5154;DHT22;2595;53.584;10.084;2022-12-18T15:30:21;-1.80;99.90
5154;DHT22;2595;53.584;10.084;2022-12-18T15:32:47;-1.80;99.90
5154;DHT22;2595;53.584;10.084;2022-12-18T15:37:44;-1.80;99.90
5154;DHT22;2595;53.584;10.084;2022-12-18T15:40:28;-1.80;99.90
5154;DHT22;2595;53.584;10.084;2022-12-18T15:42:55;-1.90;99.90
5154;DHT22;2595;53.584;10.084;2022-12-18T15:45:40;-2.00;99.90
5154;DHT22;2595;53.584;10.084;2022-12-18T15:48:21;-2.00;99.90
5154;DHT22;2595;53.584;10.084;2022-12-18T15:50:47;-2.00;99.90
5154;DHT22;2595;53.584;10.084;2022-12-18T15:53:13;-2.00;99.90
5154;DHT22;2595;53.584;10.084;2022-12-18T15:55:39;-2.10;99.90
5154;DHT22;2595;53.584;10.084;2022-12-18T15:58:23;-2.10;99.90
5154;DHT22;2595;53.584;10.084;2022-12-18T16:00:49;-2.10;99.90
5154;DHT22;2595;53.584;10.084;2022-12-18T16:03:14;-2.10;99.90
5154;DHT22;2595;53.584;10.084;2022-12-18T16:05:40;-2.10;99.90
5154;DHT22;2595;53.584;10.084;2022-12-18T16:08:05;-2.10;99.90
5154;DHT22;2595;53.584;10.084;2022-12-18T16:10:31;-2.10;99.90
5154;DHT22;2595;53.584;10.084;2022-12-18T16:12:56;-2.10;99.90
5154;DHT22;2595;53.584;10.084;2022-12-18T16:15:22;-2.10;99.90
5154;DHT22;2595;53.584;10.084;2022-12-18T16:17:48;-2.00;99.90
5154;DHT22;2595;53.584;10.084;2022-12-18T16:20:19;-2.00;99.90
5154;DHT22;2595;53.584;10.084;2022-12-18T16:22:46;-2.10;99.90
5154;DHT22;2595;53.584;10.084;2022-12-18T16:25:30;-2.00;99.90
5154;DHT22;2595;53.584;10.084;2022-12-18T16:27:56;-2.00;99.90
5154;DHT22;2595;53.584;10.084;2022-12-18T16:30:24;-2.00;99.90
5154;DHT22;2595;53.584;10.084;2022-12-18T16:32:52;-2.00;99.90
5154;DHT22;2595;53.584;10.084;2022-12-18T16:35:18;-2.00;99.90
5154;DHT22;2595;53.584;10.084;2022-12-18T16:37:44;-2.00;99.90
5154;DHT22;2595;53.584;10.084;2022-12-18T16:40:12;-2.10;99.90
5154;DHT22;2595;53.584;10.084;2022-12-18T16:42:40;-2.10;99.90
5154;DHT22;2595;53.584;10.084;2022-12-18T16:45:07;-2.00;99.90
5154;DHT22;2595;53.584;10.084;2022-12-18T16:47:34;-2.00;99.90
5154;DHT22;2595;53.584;10.084;2022-12-18T16:50:00;-2.10;99.90
5154;DHT22;2595;53.584;10.084;2022-12-18T16:52:25;-2.00;99.90
5154;DHT22;2595;53.584;10.084;2022-12-18T16:54:51;-2.00;99.90
5154;DHT22;2595;53.584;10.084;2022-12-18T16:57:19;-2.00;99.90
5154;DHT22;2595;53.584;10.084;2022-12-18T16:59:45;-2.10;99.90
5154;DHT22;2595;53.584;10.084;2022-12-18T17:02:23;-2.10;99.90
5154;DHT22;2595;53.584;10.084;2022-12-18T17:04:48;-2.10;99.90
5154;DHT22;2595;53.584;10.084;2022-12-18T17:07:15;-2.10;99.90
5154;DHT22;2595;53.584;10.084;2022-12-18T17:09:41;-2.10;99.90
5154;DHT22;2595;53.584;10.084;2022-12-18T17:12:07;-2.10;99.90
5154;DHT22;2595;53.584;10.084;2022-12-18T17:14:33;-2.10;99.90
5154;DHT22;2595;53.584;10.084;2022-12-18T17:16:59;-2.10;99.90
5154;DHT22;2595;53.584;10.084;2022-12-18T17:19:26;-2.10;99.90
5154;DHT22;2595;53.584;10.084;2022-12-18T17:21:52;-2.10;99.90
5154;DHT22;2595;53.584;10.084;2022-12-18T17:24:18;-2.20;99.90
5154;DHT22;2595;53.584;10.084;2022-12-18T17:26:44;-2.10;99.90
5154;DHT22;2595;53.584;10.084;2022-12-18T17:29:13;-2.10;99.90
5154;DHT22;2595;53.584;10.084;2022-12-18T17:31:39;-2.10;99.90
5154;DHT22;2595;53.584;10.084;2022-12-18T17:34:06;-2.10;99.90
5154;DHT22;2595;53.584;10.084;2022-12-18T17:36:32;-2.10;99.90
5154;DHT22;2595;53.584;10.084;2022-12-18T17:39:00;-2.10;99.90
5154;DHT22;2595;53.584;10.084;2022-12-18T17:41:26;-2.10;99.90
5154;DHT22;2595;53.584;10.084;2022-12-18T17:43:54;-2.20;99.90
5154;DHT22;2595;53.584;10.084;2022-12-18T17:46:20;-2.10;99.90
5154;DHT22;2595;53.584;10.084;2022-12-18T17:48:46;-2.10;99.90
5154;DHT22;2595;53.584;10.084;2022-12-18T17:51:13;-2.10;99.90
5154;DHT22;2595;53.584;10.084;2022-12-18T17:53:39;-2.10;99.90
5154;DHT22;2595;53.584;10.084;2022-12-18T17:56:05;-2.10;99.90
5154;DHT22;2595;53.584;10.084;2022-12-18T17:58:33;-2.20;99.90